Brookhaven Weather

Current Time: 02:07 Zulu

HWV METARs

Local Time Temperature Dew Point Wind Direction Wind Speed Wind Gust Sky Vis.
7/21/2019 1:56:00 AM 27.8° c 23.3° c 220° 5 kt - CLR 10.0 sm
7/21/2019 12:56:00 AM 29.4° c 23.3° c 220° 6 kt - CLR 10.0 sm
7/20/2019 11:56:00 PM 30.6° c 23.3° c 220° 8 kt - CLR 10.0 sm
7/20/2019 10:56:00 PM 30.6° c 23.9° c 210° 7 kt - CLR 10.0 sm

ISP TAF:

KISP 210135Z 2102/2124 22006KT P6SM FEW150 SCT250 
FM210400 24005KT P6SM SCT250 
FM211200 28009KT P6SM SCT250 
FM211700 25010KT P6SM SCT050 SCT250 
FM211900 23012G19KT P6SM FEW050 SCT250
Weather data provided by aviationweather.gov. Pilots must verify weather before flying.